Time,TemperatureF,DewpointF,PressureIn,WindDirection,WindDirectionDegrees,WindSpeedMPH,WindSpeedGustMPH,Humidity,HourlyPrecipIn,Conditions,Clouds,dailyrainin,SolarRadiationWatts/m^2,SoftwareType,DateUTC
2015-02-27 00:02:00,59.6,47.0,30.16,NW,321,20.7,20.7,63,0.00,CLR,,0.00,0.0,WeatherDisplay:10.37,2015-02-26 23:02:00,
2015-02-27 00:07:00,59.3,46.7,30.16,NNW,327,13.8,13.8,63,0.00,CLR,,0.00,0.0,WeatherDisplay:10.37,2015-02-26 23:07:00,
2015-02-27 00:12:00,59.0,46.8,30.16,NW,319,18.4,18.4,64,0.00,CLR,,0.00,0.0,WeatherDisplay:10.37,2015-02-26 23:12:00,
2015-02-27 00:17:00,59.0,46.8,30.16,NNW,327,17.3,17.3,64,0.00,CLR,,0.00,0.0,WeatherDisplay:10.37,2015-02-26 23:17:00,
2015-02-27 00:22:00,59.0,47.2,30.16,NW,315,18.4,18.4,65,0.00,CLR,,0.00,0.0,WeatherDisplay:10.37,2015-02-26 23:22:00,
2015-02-27 00:27:00,59.0,47.2,30.16,NNW,327,16.1,16.1,65,0.00,CLR,,0.00,0.0,WeatherDisplay:10.37,2015-02-26 23:27:00,
2015-02-27 00:33:00,58.9,47.2,30.17,NW,316,19.6,19.6,65,0.00,CLR,,0.00,0.0,WeatherDisplay:10.37,2015-02-26 23:33:00,
2015-02-27 00:38:00,59.0,47.2,30.16,NW,319,13.8,13.8,65,0.00,CLR,,0.00,0.0,WeatherDisplay:10.37,2015-02-26 23:38:00,
2015-02-27 00:43:00,58.7,47.4,30.16,NW,318,12.7,12.7,66,0.00,CLR,,0.00,0.0,WeatherDisplay:10.37,2015-02-26 23:43:00,
2015-02-27 00:48:00,58.4,47.1,30.15,NW,309,9.2,9.2,66,0.00,CLR,,0.00,0.0,WeatherDisplay:10.37,2015-02-26 23:48:00,
2015-02-27 00:53:00,58.5,46.4,30.16,NNW,340,11.5,11.5,64,0.00,CLR,,0.00,0.0,WeatherDisplay:10.37,2015-02-26 23:53:00,
2015-02-27 00:58:00,58.8,46.6,30.16,WNW,294,15.0,15.0,64,0.00,CLR,,0.00,0.0,WeatherDisplay:10.37,2015-02-26 23:58:00,
2015-02-27 01:03:00,59.0,46.8,30.15,NW,321,18.4,18.4,64,0.00,CLR,,0.00,0.0,WeatherDisplay:10.37,2015-02-27 00:03:00,
2015-02-27 01:08:00,59.0,46.4,30.15,NNE,18,17.3,17.3,63,0.00,CLR,,0.00,0.0,WeatherDisplay:10.37,2015-02-27 00:08:00,
2015-02-27 01:13:00,59.0,46.0,30.15,NNW,331,13.8,13.8,62,0.00,CLR,,0.00,0.0,WeatherDisplay:10.37,2015-02-27 00:13:00,
2015-02-27 01:18:00,59.0,46.0,30.15,NNW,329,13.8,13.8,62,0.00,CLR,,0.00,0.0,WeatherDisplay:10.37,2015-02-27 00:18:00,
2015-02-27 01:23:00,59.0,46.4,30.15,NNW,332,15.0,15.0,63,0.00,CLR,,0.00,0.0,WeatherDisplay:10.37,2015-02-27 00:23:00,
2015-02-27 01:28:00,59.0,46.4,30.15,North,349,16.1,16.1,63,0.00,CLR,,0.00,0.0,WeatherDisplay:10.37,2015-02-27 00:28:00,
2015-02-27 01:33:00,59.0,46.4,30.15,North,355,11.5,11.5,63,0.00,CLR,,0.00,0.0,WeatherDisplay:10.37,2015-02-27 00:33:00,
2015-02-27 01:38:00,58.9,46.7,30.15,NW,319,13.0,13.0,64,0.00,CLR,,0.00,0.0,WeatherDisplay:10.37,2015-02-27 00:38:00,
2015-02-27 01:44:00,58.7,46.5,30.15,NNE,22,12.0,12.0,64,0.00,CLR,,0.00,0.0,WeatherDisplay:10.37,2015-02-27 00:44:00,
2015-02-27 01:49:00,58.6,46.0,30.15,North,350,11.5,11.5,63,0.00,CLR,,0.00,0.0,WeatherDisplay:10.37,2015-02-27 00:49:00,
2015-02-27 01:54:00,58.6,46.0,30.14,NNW,348,26.5,26.5,63,0.00,CLR,,0.00,0.0,WeatherDisplay:10.37,2015-02-27 00:54:00,
2015-02-27 01:59:00,58.6,46.5,30.15,North,9,15.0,15.0,64,0.00,CLR,,0.00,0.0,WeatherDisplay:10.37,2015-02-27 00:59:00,
2015-02-27 02:04:00,58.3,46.6,30.14,NW,316,16.1,16.1,65,0.00,CLR,,0.00,0.0,WeatherDisplay:10.37,2015-02-27 01:04:00,
2015-02-27 02:09:00,57.9,46.2,30.14,NW,319,23.0,23.0,65,0.00,CLR,,0.00,0.0,WeatherDisplay:10.37,2015-02-27 01:09:00,
2015-02-27 02:14:00,57.8,46.1,30.14,NNW,328,26.5,26.5,65,0.00,CLR,,0.00,0.0,WeatherDisplay:10.37,2015-02-27 01:14:00,
2015-02-27 02:19:00,57.9,46.2,30.14,NW,317,21.9,21.9,65,0.00,CLR,,0.00,0.0,WeatherDisplay:10.37,2015-02-27 01:19:00,
2015-02-27 02:24:00,57.6,46.3,30.14,NW,315,21.9,21.9,66,0.00,CLR,,0.00,0.0,WeatherDisplay:10.37,2015-02-27 01:24:00,
2015-02-27 02:29:00,57.4,45.7,30.14,North,360,21.9,21.9,65,0.00,CLR,,0.00,0.0,WeatherDisplay:10.37,2015-02-27 01:29:00,
2015-02-27 02:34:00,57.5,45.8,30.13,NW,309,24.0,24.0,65,0.00,CLR,,0.00,0.0,WeatherDisplay:10.37,2015-02-27 01:34:00,
2015-02-27 02:39:00,57.4,46.5,30.12,NW,317,19.6,19.6,67,0.00,CLR,,0.00,0.0,WeatherDisplay:10.37,2015-02-27 01:39:00,
2015-02-27 02:44:00,56.9,46.1,30.12,NW,317,20.7,20.7,67,0.00,CLR,,0.00,0.0,WeatherDisplay:10.37,2015-02-27 01:44:00,
2015-02-27 02:49:00,57.2,45.5,30.12,NNW,337,23.0,23.0,65,0.00,CLR,,0.00,0.0,WeatherDisplay:10.37,2015-02-27 01:49:00,
2015-02-27 02:54:00,57.6,45.5,30.12,NW,322,16.1,16.1,64,0.00,CLR,,0.00,0.0,WeatherDisplay:10.37,2015-02-27 01:54:00,
2015-02-27 02:59:00,58.0,45.0,30.12,North,5,32.2,32.2,62,0.00,CLR,,0.00,0.0,WeatherDisplay:10.37,2015-02-27 01:59:00,
2015-02-27 03:04:00,58.5,45.1,30.10,North,5,31.1,31.1,61,0.00,CLR,,0.00,0.0,WeatherDisplay:10.37,2015-02-27 02:04:00,
2015-02-27 03:09:00,58.8,44.9,30.09,NW,323,36.0,36.0,60,0.00,CLR,,0.00,0.0,WeatherDisplay:10.37,2015-02-27 02:09:00,
2015-02-27 03:14:00,58.7,44.8,30.10,NW,324,32.2,32.2,60,0.00,CLR,,0.00,0.0,WeatherDisplay:10.37,2015-02-27 02:14:00,
2015-02-27 03:19:00,58.7,45.3,30.09,NW,325,23.0,23.0,61,0.00,CLR,,0.00,0.0,WeatherDisplay:10.37,2015-02-27 02:19:00,
2015-02-27 03:24:00,58.7,45.3,30.10,NNW,334,25.3,25.3,61,0.00,CLR,,0.00,0.0,WeatherDisplay:10.37,2015-02-27 02:24:00,
2015-02-27 03:29:00,58.7,44.8,30.10,NW,321,31.1,31.1,60,0.00,CLR,,0.00,0.0,WeatherDisplay:10.37,2015-02-27 02:29:00,
2015-02-27 03:34:00,58.8,44.9,30.09,North,360,35.7,35.7,60,0.00,CLR,,0.00,0.0,WeatherDisplay:10.37,2015-02-27 02:34:00,
2015-02-27 03:39:00,58.7,45.3,30.09,NNW,348,35.7,35.7,61,0.00,CLR,,0.00,0.0,WeatherDisplay:10.37,2015-02-27 02:39:00,
2015-02-27 03:44:00,58.5,45.1,30.09,NW,324,25.3,25.3,61,0.00,CLR,,0.00,0.0,WeatherDisplay:10.37,2015-02-27 02:44:00,
2015-02-27 03:50:00,58.5,45.1,30.09,NNW,337,34.5,34.5,61,0.00,CLR,,0.00,0.0,WeatherDisplay:10.37,2015-02-27 02:50:00,
2015-02-27 03:55:00,58.4,45.4,30.11,NNW,334,43.7,43.7,62,0.00,CLR,,0.00,0.0,WeatherDisplay:10.37,2015-02-27 02:55:00,
2015-02-27 04:00:00,58.5,45.1,30.09,NNE,18,19.6,19.6,61,0.00,,,0.00,0.0,WeatherDisplay:10.37,2015-02-27 03:00:00,
2015-02-27 04:05:00,58.5,44.7,30.09,North,355,38.0,38.0,60,0.00,,,0.00,0.0,WeatherDisplay:10.37,2015-02-27 03:05:00,
2015-02-27 04:10:00,58.7,44.8,30.10,NW,325,33.4,33.4,60,0.00,CLR,,0.00,0.0,WeatherDisplay:10.37,2015-02-27 03:10:00,
2015-02-27 04:15:00,58.6,44.8,30.10,North,360,36.8,36.8,60,0.00,CLR,,0.00,0.0,WeatherDisplay:10.37,2015-02-27 03:15:00,
2015-02-27 04:21:00,58.2,44.8,30.08,NE,49,23.0,23.0,61,0.00,CLR,,0.00,0.0,WeatherDisplay:10.37,2015-02-27 03:21:00,
2015-02-27 04:26:00,58.0,44.6,30.09,NNE,19,20.0,20.0,61,0.00,CLR,,0.00,0.0,WeatherDisplay:10.37,2015-02-27 03:26:00,
2015-02-27 04:31:00,57.8,44.9,30.09,NE,46,27.6,27.6,62,0.00,CLR,,0.00,0.0,WeatherDisplay:10.37,2015-02-27 03:31:00,
2015-02-27 04:36:00,57.7,44.8,30.09,North,360,20.7,20.7,62,0.00,CLR,,0.00,0.0,WeatherDisplay:10.37,2015-02-27 03:36:00,
2015-02-27 04:41:00,57.6,45.1,30.08,NW,304,24.2,24.2,63,0.00,CLR,,0.00,0.0,WeatherDisplay:10.37,2015-02-27 03:41:00,
2015-02-27 04:46:00,57.7,45.2,30.08,NNE,14,39.1,39.1,63,0.00,CLR,,0.00,0.0,WeatherDisplay:10.37,2015-02-27 03:46:00,
2015-02-27 04:51:00,57.6,45.1,30.08,North,11,26.5,26.5,63,0.00,CLR,,0.00,0.0,WeatherDisplay:10.37,2015-02-27 03:51:00,
2015-02-27 04:56:00,57.5,45.0,30.08,NE,54,26.5,26.5,63,0.00,CLR,,0.00,0.0,WeatherDisplay:10.37,2015-02-27 03:56:00,
2015-02-27 05:01:00,57.4,44.5,30.08,NNE,29,33.4,33.4,62,0.00,CLR,,0.00,0.0,WeatherDisplay:10.37,2015-02-27 04:01:00,
2015-02-27 05:06:00,57.5,45.0,30.08,NNE,19,23.0,23.0,63,0.00,CLR,,0.00,0.0,WeatherDisplay:10.37,2015-02-27 04:06:00,
2015-02-27 05:11:00,57.5,44.1,30.08,NNW,335,34.5,34.5,61,0.00,CLR,,0.00,0.0,WeatherDisplay:10.37,2015-02-27 04:11:00,
2015-02-27 05:16:00,57.5,43.7,30.09,NNE,26,34.5,34.5,60,0.00,CLR,,0.00,0.0,WeatherDisplay:10.37,2015-02-27 04:16:00,
2015-02-27 05:21:00,57.7,44.3,30.08,NW,326,42.0,42.0,61,0.00,CLR,,0.00,0.0,WeatherDisplay:10.37,2015-02-27 04:21:00,
2015-02-27 05:26:00,57.6,44.7,30.08,NNW,336,33.4,33.4,62,0.00,CLR,,0.00,0.0,WeatherDisplay:10.37,2015-02-27 04:26:00,
2015-02-27 05:31:00,57.4,44.5,30.08,NW,304,26.5,26.5,62,0.00,CLR,,0.00,0.0,WeatherDisplay:10.37,2015-02-27 04:31:00,
2015-02-27 05:36:00,57.4,44.1,30.07,NNW,331,42.6,42.6,61,0.00,,,0.00,0.0,WeatherDisplay:10.37,2015-02-27 04:36:00,
2015-02-27 05:42:00,57.2,43.9,30.07,NNW,331,36.8,36.8,61,0.00,CLR,,0.00,0.0,WeatherDisplay:10.37,2015-02-27 04:42:00,
2015-02-27 05:47:00,57.2,43.9,30.06,North,350,43.7,43.7,61,0.00,CLR,,0.00,0.0,WeatherDisplay:10.37,2015-02-27 04:47:00,
2015-02-27 05:53:00,57.3,44.0,30.07,NNW,340,36.0,36.0,61,0.00,CLR,,0.00,0.0,WeatherDisplay:10.37,2015-02-27 04:53:00,
2015-02-27 05:58:00,57.3,43.5,30.08,NNW,331,38.0,38.0,60,0.00,CLR,,0.00,0.0,WeatherDisplay:10.37,2015-02-27 04:58:00,
2015-02-27 06:03:00,57.3,44.0,30.08,NNW,327,32.2,32.2,61,0.00,CLR,,0.00,0.0,WeatherDisplay:10.37,2015-02-27 05:03:00,
2015-02-27 06:08:00,57.2,43.4,30.09,NW,321,36.8,36.8,60,0.00,CLR,,0.00,0.0,WeatherDisplay:10.37,2015-02-27 05:08:00,
2015-02-27 06:13:00,57.3,43.5,30.09,WNW,300,41.4,41.4,60,0.00,,,0.00,0.0,WeatherDisplay:10.37,2015-02-27 05:13:00,
2015-02-27 06:18:00,57.3,43.5,30.09,NW,311,32.0,32.0,60,0.00,CLR,,0.00,0.0,WeatherDisplay:10.37,2015-02-27 05:18:00,
2015-02-27 06:23:00,57.2,43.4,30.09,NW,317,39.1,39.1,60,0.00,CLR,,0.00,0.0,WeatherDisplay:10.37,2015-02-27 05:23:00,
2015-02-27 06:28:00,57.2,43.4,30.09,NNW,341,38.0,38.0,60,0.00,CLR,,0.00,0.0,WeatherDisplay:10.37,2015-02-27 05:28:00,
2015-02-27 06:33:00,57.2,43.4,30.09,NNW,335,26.5,26.5,60,0.00,CLR,,0.00,0.0,WeatherDisplay:10.37,2015-02-27 05:33:00,
2015-02-27 06:38:00,57.2,43.4,30.10,NW,309,32.2,32.2,60,0.00,CLR,,0.00,0.0,WeatherDisplay:10.37,2015-02-27 05:38:00,
2015-02-27 06:43:00,57.2,43.4,30.10,NNW,334,36.8,36.8,60,0.00,CLR,,0.00,0.0,WeatherDisplay:10.37,2015-02-27 05:43:00,
2015-02-27 06:48:00,57.1,42.9,30.09,North,355,35.0,35.0,59,0.00,CLR,,0.00,0.0,WeatherDisplay:10.37,2015-02-27 05:48:00,
2015-02-27 06:53:00,57.2,43.4,30.09,NW,310,26.5,26.5,60,0.00,CLR,,0.00,0.0,WeatherDisplay:10.37,2015-02-27 05:53:00,
2015-02-27 06:58:00,57.0,43.2,30.10,NW,317,29.9,29.9,60,0.00,CLR,,0.00,0.0,WeatherDisplay:10.37,2015-02-27 05:58:00,
2015-02-27 07:03:00,57.0,43.7,30.10,NNW,341,18.4,18.4,61,0.00,CLR,,0.00,0.0,WeatherDisplay:10.37,2015-02-27 06:03:00,
2015-02-27 07:08:00,56.9,43.6,30.09,NNW,333,31.1,31.1,61,0.00,CLR,,0.00,0.0,WeatherDisplay:10.37,2015-02-27 06:08:00,
2015-02-27 07:13:00,56.8,43.5,30.10,NNW,332,21.9,21.9,61,0.00,CLR,,0.00,0.0,WeatherDisplay:10.37,2015-02-27 06:13:00,
2015-02-27 07:18:00,56.6,43.7,30.10,NW,315,24.2,24.2,62,0.00,CLR,,0.00,0.0,WeatherDisplay:10.37,2015-02-27 06:18:00,
2015-02-27 07:23:00,56.4,43.5,30.11,North,355,17.3,17.3,62,0.00,CLR,,0.00,0.0,WeatherDisplay:10.37,2015-02-27 06:23:00,
2015-02-27 07:28:00,56.2,43.8,30.10,NW,314,28.8,28.8,63,0.00,CLR,,0.00,0.0,WeatherDisplay:10.37,2015-02-27 06:28:00,
2015-02-27 07:33:00,56.0,43.6,30.10,NNW,345,31.1,31.1,63,0.00,CLR,,0.00,0.0,WeatherDisplay:10.37,2015-02-27 06:33:00,
2015-02-27 07:38:00,55.9,43.9,30.11,NNW,341,26.5,26.5,64,0.00,CLR,,0.00,0.0,WeatherDisplay:10.37,2015-02-27 06:38:00,
2015-02-27 07:43:00,55.8,43.8,30.11,NW,325,30.0,30.0,64,0.00,CLR,,0.00,6.0,WeatherDisplay:10.37,2015-02-27 06:43:00,
2015-02-27 07:48:00,55.7,43.7,30.10,NW,317,22.0,22.0,64,0.00,CLR,,0.00,8.4,WeatherDisplay:10.37,2015-02-27 06:48:00,
2015-02-27 07:53:00,55.7,44.1,30.10,NNW,327,27.0,27.0,65,0.00,CLR,,0.00,10.8,WeatherDisplay:10.37,2015-02-27 06:53:00,
2015-02-27 07:58:00,55.7,43.7,30.09,NW,315,34.5,34.5,64,0.00,CLR,,0.00,14.4,WeatherDisplay:10.37,2015-02-27 06:58:00,
2015-02-27 08:03:00,55.9,43.9,30.10,NNW,336,36.8,36.8,64,0.00,CLR,,0.00,22.8,WeatherDisplay:10.37,2015-02-27 07:03:00,
2015-02-27 08:08:00,56.0,43.6,30.10,NNW,327,20.7,20.7,63,0.00,CLR,,0.00,39.6,WeatherDisplay:10.37,2015-02-27 07:08:00,
2015-02-27 08:13:00,56.1,43.7,30.10,NW,323,38.0,38.0,63,0.00,CLR,,0.00,55.2,WeatherDisplay:10.37,2015-02-27 07:13:00,
2015-02-27 08:18:00,56.3,43.4,30.12,North,355,24.2,24.2,62,0.00,CLR,,0.00,69.6,WeatherDisplay:10.37,2015-02-27 07:18:00,
2015-02-27 08:23:00,56.5,44.0,30.11,NNW,333,28.8,28.8,63,0.00,CLR,,0.00,88.8,WeatherDisplay:10.37,2015-02-27 07:23:00,
2015-02-27 08:28:00,56.5,43.6,30.11,NNW,333,33.4,33.4,62,0.00,CLR,,0.00,109.2,WeatherDisplay:10.37,2015-02-27 07:28:00,
2015-02-27 08:33:00,56.8,43.5,30.12,NW,325,26.5,26.5,61,0.00,CLR,,0.00,133.2,WeatherDisplay:10.37,2015-02-27 07:33:00,
2015-02-27 08:38:00,56.8,43.9,30.11,NW,315,43.7,43.7,62,0.00,CLR,,0.00,170.4,WeatherDisplay:10.37,2015-02-27 07:38:00,
2015-02-27 08:43:00,56.9,43.6,30.12,NNW,327,29.0,29.0,61,0.00,CLR,,0.00,202.8,WeatherDisplay:10.37,2015-02-27 07:43:00,
2015-02-27 08:48:00,57.2,43.9,30.13,NW,323,34.5,34.5,61,0.00,CLR,,0.00,231.6,WeatherDisplay:10.37,2015-02-27 07:48:00,
2015-02-27 08:53:00,57.3,44.0,30.13,NW,316,28.8,28.8,61,0.00,SCT,,0.00,253.2,WeatherDisplay:10.37,2015-02-27 07:53:00,
2015-02-27 08:58:00,57.4,44.1,30.13,NNW,329,25.3,25.3,61,0.00,SCT,,0.00,186.0,WeatherDisplay:10.37,2015-02-27 07:58:00,
2015-02-27 09:03:00,57.6,43.4,30.13,NNW,348,32.2,32.2,59,0.00,BKN,,0.00,139.2,WeatherDisplay:10.37,2015-02-27 08:03:00,
2015-02-27 09:08:00,57.8,44.0,30.13,NW,323,28.8,28.8,60,0.00,OVC,,0.00,160.8,WeatherDisplay:10.37,2015-02-27 08:08:00,
2015-02-27 09:13:00,57.8,44.0,30.13,NNW,329,24.2,24.2,60,0.00,OVC,,0.00,139.2,WeatherDisplay:10.37,2015-02-27 08:13:00,
2015-02-27 09:18:00,58.0,43.7,30.13,NW,321,26.5,26.5,59,0.00,OVC,,0.00,198.0,WeatherDisplay:10.37,2015-02-27 08:18:00,
2015-02-27 09:23:00,58.0,43.7,30.13,NNW,340,30.0,30.0,59,0.00,OVC,,0.00,264.0,WeatherDisplay:10.37,2015-02-27 08:23:00,
2015-02-27 09:28:00,58.2,43.5,30.13,NW,315,31.1,31.1,58,0.00,OVC,,0.00,206.4,WeatherDisplay:10.37,2015-02-27 08:28:00,
2015-02-27 09:33:00,58.3,43.6,30.13,NNW,344,25.3,25.3,58,0.00,OVC,,0.00,231.6,WeatherDisplay:10.37,2015-02-27 08:33:00,
2015-02-27 09:38:00,58.4,43.7,30.13,NW,316,29.9,29.9,58,0.00,OVC,,0.00,300.0,WeatherDisplay:10.37,2015-02-27 08:38:00,
2015-02-27 09:43:00,58.5,43.8,30.14,NNW,340,27.6,27.6,58,0.00,BKN,,0.00,328.8,WeatherDisplay:10.37,2015-02-27 08:43:00,
2015-02-27 09:48:00,58.6,43.9,30.15,NNW,327,27.6,27.6,58,0.00,BKN,,0.00,364.8,WeatherDisplay:10.37,2015-02-27 08:48:00,
2015-02-27 09:53:00,58.6,44.3,30.15,NW,319,24.2,24.2,59,0.00,BKN,,0.00,373.2,WeatherDisplay:10.37,2015-02-27 08:53:00,
2015-02-27 09:58:00,58.8,43.6,30.15,NW,320,21.0,21.0,57,0.00,BKN,,0.00,187.2,WeatherDisplay:10.37,2015-02-27 08:58:00,
2015-02-27 10:03:00,59.0,44.2,30.15,NW,323,25.3,25.3,58,0.00,BKN,,0.00,322.8,WeatherDisplay:10.37,2015-02-27 09:03:00,
2015-02-27 10:08:00,58.6,44.3,30.16,NW,320,20.0,20.0,59,0.00,BKN,,0.00,325.2,WeatherDisplay:10.37,2015-02-27 09:08:00,
2015-02-27 10:13:00,58.6,43.9,30.16,NNW,340,25.3,25.3,58,0.00,BKN,,0.00,492.0,WeatherDisplay:10.37,2015-02-27 09:13:00,
2015-02-27 10:18:00,58.7,45.3,30.16,NNW,342,27.6,27.6,61,0.00,SCT,,0.00,531.6,WeatherDisplay:10.37,2015-02-27 09:18:00,
2015-02-27 10:23:00,58.6,44.3,30.15,NNW,336,23.0,23.0,59,0.00,FEW,,0.00,553.2,WeatherDisplay:10.37,2015-02-27 09:23:00,
2015-02-27 10:28:00,59.0,44.7,30.15,NNW,336,31.0,31.0,59,0.00,FEW,,0.00,464.4,WeatherDisplay:10.37,2015-02-27 09:28:00,
2015-02-27 10:33:00,59.0,44.2,30.15,NW,326,25.3,25.3,58,0.00,SCT,,0.00,584.4,WeatherDisplay:10.37,2015-02-27 09:33:00,
2015-02-27 10:38:00,59.1,44.8,30.15,NW,318,26.5,26.5,59,0.00,FEW,,0.00,559.2,WeatherDisplay:10.37,2015-02-27 09:38:00,
2015-02-27 10:43:00,59.4,43.7,30.15,NW,326,26.5,26.5,56,0.00,FEW,,0.00,601.2,WeatherDisplay:10.37,2015-02-27 09:43:00,
2015-02-27 10:48:00,59.6,43.9,30.15,NNW,336,24.2,24.2,56,0.00,FEW,,0.00,578.4,WeatherDisplay:10.37,2015-02-27 09:48:00,
2015-02-27 10:53:00,59.7,44.9,30.16,NW,319,19.6,19.6,58,0.00,FEW,,0.00,609.6,WeatherDisplay:10.37,2015-02-27 09:53:00,
2015-02-27 10:58:00,60.1,44.3,30.14,NNW,344,26.5,26.5,56,0.00,FEW,,0.00,631.2,WeatherDisplay:10.37,2015-02-27 09:58:00,
2015-02-27 11:03:00,60.3,44.5,30.15,NW,323,23.0,23.0,56,0.00,FEW,,0.00,651.6,WeatherDisplay:10.37,2015-02-27 10:03:00,
2015-02-27 11:08:00,60.6,44.3,30.15,NW,310,23.0,23.0,55,0.00,FEW,,0.00,514.8,WeatherDisplay:10.37,2015-02-27 10:08:00,
2015-02-27 11:13:00,60.8,44.0,30.14,NNW,331,34.5,34.5,54,0.00,FEW,,0.00,681.6,WeatherDisplay:10.37,2015-02-27 10:13:00,
2015-02-27 11:18:00,61.0,44.7,30.16,NNW,329,19.6,19.6,55,0.00,FEW,,0.00,673.2,WeatherDisplay:10.37,2015-02-27 10:18:00,
2015-02-27 11:23:00,61.1,44.8,30.15,NNW,328,21.9,21.9,55,0.00,FEW,,0.00,696.0,WeatherDisplay:10.37,2015-02-27 10:23:00,
2015-02-27 11:28:00,61.2,45.4,30.15,NNW,344,26.5,26.5,56,0.00,FEW,,0.00,700.8,WeatherDisplay:10.37,2015-02-27 10:28:00,
2015-02-27 11:33:00,61.3,45.5,30.15,North,5,19.6,19.6,56,0.00,FEW,,0.00,668.4,WeatherDisplay:10.37,2015-02-27 10:33:00,
2015-02-27 11:38:00,61.4,45.1,30.15,NNW,347,24.2,24.2,55,0.00,FEW,,0.00,748.8,WeatherDisplay:10.37,2015-02-27 10:38:00,
2015-02-27 11:43:00,61.9,45.1,30.15,North,350,22.0,22.0,54,0.00,FEW,,0.00,753.6,WeatherDisplay:10.37,2015-02-27 10:43:00,
2015-02-27 11:48:00,62.2,45.3,30.14,NNW,348,22.0,22.0,54,0.00,FEW,,0.00,784.8,WeatherDisplay:10.37,2015-02-27 10:48:00,
2015-02-27 11:53:00,62.3,45.9,30.15,NNW,327,19.6,19.6,55,0.00,CLR,,0.00,780.0,WeatherDisplay:10.37,2015-02-27 10:53:00,
2015-02-27 11:58:00,62.5,45.1,30.15,NNW,342,20.7,20.7,53,0.00,CLR,,0.00,784.8,WeatherDisplay:10.37,2015-02-27 10:58:00,
2015-02-27 12:03:00,63.1,45.7,30.15,North,5,19.6,19.6,53,0.00,FEW,,0.00,717.6,WeatherDisplay:10.37,2015-02-27 11:03:00,
2015-02-27 12:08:00,63.5,45.6,30.15,North,360,19.6,19.6,52,0.00,FEW,,0.00,805.2,WeatherDisplay:10.37,2015-02-27 11:08:00,
2015-02-27 12:13:00,63.9,45.9,30.15,North,350,20.7,20.7,52,0.00,CLR,,0.00,814.8,WeatherDisplay:10.37,2015-02-27 11:13:00,
2015-02-27 12:18:00,64.4,45.9,30.15,NNE,13,22.0,22.0,51,0.00,CLR,,0.00,829.2,WeatherDisplay:10.37,2015-02-27 11:18:00,
2015-02-27 12:23:00,64.5,44.9,30.15,NNW,332,25.3,25.3,49,0.00,CLR,,0.00,826.8,WeatherDisplay:10.37,2015-02-27 11:23:00,
2015-02-27 12:28:00,64.5,45.4,30.14,NE,46,21.9,21.9,50,0.00,CLR,,0.00,816.0,WeatherDisplay:10.37,2015-02-27 11:28:00,
2015-02-27 12:33:00,64.7,45.1,30.15,NE,41,23.0,23.0,49,0.00,CLR,,0.00,829.2,WeatherDisplay:10.37,2015-02-27 11:33:00,
2015-02-27 12:38:00,64.9,45.8,30.14,NNE,32,21.9,21.9,50,0.00,CLR,,0.00,832.8,WeatherDisplay:10.37,2015-02-27 11:38:00,
2015-02-27 12:44:00,65.4,45.7,30.15,NE,38,18.0,18.0,49,0.00,CLR,,0.00,849.6,WeatherDisplay:10.37,2015-02-27 11:44:00,
2015-02-27 12:49:00,65.7,46.0,30.15,North,355,18.4,18.4,49,0.00,CLR,,0.00,860.4,WeatherDisplay:10.37,2015-02-27 11:49:00,
2015-02-27 12:54:00,66.1,46.4,30.14,NNE,15,13.8,13.8,49,0.00,CLR,,0.00,871.2,WeatherDisplay:10.37,2015-02-27 11:54:00,
2015-02-27 12:59:00,66.0,46.8,30.14,NNW,340,12.7,12.7,50,0.00,CLR,,0.00,848.4,WeatherDisplay:10.37,2015-02-27 11:59:00,
2015-02-27 13:04:00,65.8,46.6,30.14,NNW,330,16.1,16.1,50,0.00,CLR,,0.00,849.6,WeatherDisplay:10.37,2015-02-27 12:04:00,
2015-02-27 13:09:00,65.6,46.5,30.13,NNW,327,25.3,25.3,50,0.00,CLR,,0.00,873.6,WeatherDisplay:10.37,2015-02-27 12:09:00,
2015-02-27 13:14:00,64.4,46.4,30.12,NW,319,26.5,26.5,52,0.00,CLR,,0.00,858.0,WeatherDisplay:10.37,2015-02-27 12:14:00,
2015-02-27 13:19:00,63.6,46.6,30.12,NNW,331,27.6,27.6,54,0.00,CLR,,0.00,868.8,WeatherDisplay:10.37,2015-02-27 12:19:00,
2015-02-27 13:24:00,63.4,46.5,30.12,NW,321,31.1,31.1,54,0.00,CLR,,0.00,862.8,WeatherDisplay:10.37,2015-02-27 12:24:00,
2015-02-27 13:29:00,63.3,46.4,30.12,NNW,328,31.0,31.0,54,0.00,CLR,,0.00,866.4,WeatherDisplay:10.37,2015-02-27 12:29:00,
2015-02-27 13:34:00,63.1,46.2,30.11,NNW,328,26.5,26.5,54,0.00,CLR,,0.00,858.0,WeatherDisplay:10.37,2015-02-27 12:34:00,
2015-02-27 13:39:00,63.2,46.3,30.11,NW,322,27.6,27.6,54,0.00,CLR,,0.00,866.4,WeatherDisplay:10.37,2015-02-27 12:39:00,
2015-02-27 13:44:00,63.3,46.9,30.11,NW,321,25.3,25.3,55,0.00,CLR,,0.00,858.0,WeatherDisplay:10.37,2015-02-27 12:44:00,
2015-02-27 13:49:00,63.3,46.9,30.11,NW,317,28.8,28.8,55,0.00,CLR,,0.00,866.4,WeatherDisplay:10.37,2015-02-27 12:49:00,
2015-02-27 13:54:00,63.3,46.4,30.11,NW,323,31.1,31.1,54,0.00,CLR,,0.00,846.0,WeatherDisplay:10.37,2015-02-27 12:54:00,
2015-02-27 13:59:00,63.4,46.9,30.10,NW,314,29.9,29.9,55,0.00,CLR,,0.00,846.0,WeatherDisplay:10.37,2015-02-27 12:59:00,
2015-02-27 14:04:00,63.2,46.8,30.10,NW,320,32.2,32.2,55,0.00,CLR,,0.00,846.0,WeatherDisplay:10.37,2015-02-27 13:04:00,
2015-02-27 14:09:00,63.1,46.7,30.10,NW,313,39.1,39.1,55,0.00,CLR,,0.00,818.4,WeatherDisplay:10.37,2015-02-27 13:09:00,
2015-02-27 14:14:00,62.9,47.0,30.11,NW,320,29.9,29.9,56,0.00,CLR,,0.00,837.6,WeatherDisplay:10.37,2015-02-27 13:14:00,
2015-02-27 14:19:00,62.7,46.8,30.10,NNW,332,34.5,34.5,56,0.00,CLR,,0.00,832.8,WeatherDisplay:10.37,2015-02-27 13:19:00,
2015-02-27 14:24:00,62.7,46.8,30.10,NW,309,34.5,34.5,56,0.00,CLR,,0.00,824.4,WeatherDisplay:10.37,2015-02-27 13:24:00,
2015-02-27 14:29:00,62.6,46.7,30.10,NNW,331,35.7,35.7,56,0.00,CLR,,0.00,823.2,WeatherDisplay:10.37,2015-02-27 13:29:00,
2015-02-27 14:34:00,62.5,46.1,30.09,NW,316,40.3,40.3,55,0.00,CLR,,0.00,805.2,WeatherDisplay:10.37,2015-02-27 13:34:00,
2015-02-27 14:39:00,62.4,46.5,30.09,NNW,329,40.3,40.3,56,0.00,CLR,,0.00,801.6,WeatherDisplay:10.37,2015-02-27 13:39:00,
2015-02-27 14:44:00,62.3,46.4,30.09,NNW,328,36.8,36.8,56,0.00,CLR,,0.00,795.6,WeatherDisplay:10.37,2015-02-27 13:44:00,
2015-02-27 14:49:00,62.1,46.2,30.10,NW,313,34.5,34.5,56,0.00,CLR,,0.00,796.8,WeatherDisplay:10.37,2015-02-27 13:49:00,
2015-02-27 14:54:00,62.2,46.3,30.10,NW,307,34.5,34.5,56,0.00,CLR,,0.00,784.8,WeatherDisplay:10.37,2015-02-27 13:54:00,
2015-02-27 14:59:00,62.1,46.2,30.09,NW,326,35.7,35.7,56,0.00,CLR,,0.00,782.4,WeatherDisplay:10.37,2015-02-27 13:59:00,
2015-02-27 15:04:00,62.0,46.1,30.10,NW,323,33.4,33.4,56,0.00,CLR,,0.00,768.0,WeatherDisplay:10.37,2015-02-27 14:04:00,
2015-02-27 15:09:00,62.0,46.6,30.09,NW,312,35.7,35.7,57,0.00,CLR,,0.00,762.0,WeatherDisplay:10.37,2015-02-27 14:09:00,
2015-02-27 15:14:00,61.9,45.5,30.10,WNW,293,34.5,34.5,55,0.00,CLR,,0.00,751.2,WeatherDisplay:10.37,2015-02-27 14:14:00,
2015-02-27 15:19:00,61.8,45.9,30.10,NW,313,34.5,34.5,56,0.00,CLR,,0.00,738.0,WeatherDisplay:10.37,2015-02-27 14:19:00,
2015-02-27 15:24:00,61.6,46.2,30.10,NNW,333,32.2,32.2,57,0.00,CLR,,0.00,726.0,WeatherDisplay:10.37,2015-02-27 14:24:00,
2015-02-27 15:29:00,61.4,46.0,30.10,WNW,290,34.5,34.5,57,0.00,CLR,,0.00,710.4,WeatherDisplay:10.37,2015-02-27 14:29:00,
2015-02-27 15:34:00,61.3,45.9,30.10,NNW,330,32.2,32.2,57,0.00,CLR,,0.00,704.4,WeatherDisplay:10.37,2015-02-27 14:34:00,
2015-02-27 15:39:00,61.1,45.7,30.10,NW,321,40.3,40.3,57,0.00,CLR,,0.00,692.4,WeatherDisplay:10.37,2015-02-27 14:39:00,
2015-02-27 15:44:00,60.9,45.1,30.10,NW,323,48.3,48.3,56,0.00,CLR,,0.00,675.6,WeatherDisplay:10.37,2015-02-27 14:44:00,
2015-02-27 15:49:00,60.9,45.6,30.11,NNW,333,34.5,34.5,57,0.00,CLR,,0.00,657.6,WeatherDisplay:10.37,2015-02-27 14:49:00,
2015-02-27 15:54:00,60.9,45.1,30.11,NNW,328,35.7,35.7,56,0.00,CLR,,0.00,648.0,WeatherDisplay:10.37,2015-02-27 14:54:00,
2015-02-27 15:59:00,61.0,45.7,30.11,NW,304,35.7,35.7,57,0.00,CLR,,0.00,639.6,WeatherDisplay:10.37,2015-02-27 14:59:00,
2015-02-27 16:04:00,60.8,45.0,30.11,NW,310,38.0,38.0,56,0.00,CLR,,0.00,624.0,WeatherDisplay:10.37,2015-02-27 15:04:00,
2015-02-27 16:09:00,60.7,44.9,30.11,NW,315,34.5,34.5,56,0.00,CLR,,0.00,607.2,WeatherDisplay:10.37,2015-02-27 15:09:00,
2015-02-27 16:14:00,60.3,44.5,30.11,NW,323,33.4,33.4,56,0.00,CLR,,0.00,595.2,WeatherDisplay:10.37,2015-02-27 15:14:00,
2015-02-27 16:19:00,60.3,44.5,30.12,NW,304,32.2,32.2,56,0.00,CLR,,0.00,576.0,WeatherDisplay:10.37,2015-02-27 15:19:00,
2015-02-27 16:24:00,60.3,44.5,30.12,NW,313,33.4,33.4,56,0.00,CLR,,0.00,559.2,WeatherDisplay:10.37,2015-02-27 15:24:00,
2015-02-27 16:29:00,60.3,44.5,30.11,NNW,337,38.0,38.0,56,0.00,CLR,,0.00,544.8,WeatherDisplay:10.37,2015-02-27 15:29:00,
2015-02-27 16:34:00,60.2,44.4,30.12,NW,325,33.4,33.4,56,0.00,CLR,,0.00,531.6,WeatherDisplay:10.37,2015-02-27 15:34:00,
2015-02-27 16:39:00,60.2,44.4,30.12,WNW,301,33.4,33.4,56,0.00,CLR,,0.00,512.4,WeatherDisplay:10.37,2015-02-27 15:39:00,
2015-02-27 16:44:00,60.3,44.5,30.12,NNW,328,28.8,28.8,56,0.00,CLR,,0.00,498.0,WeatherDisplay:10.37,2015-02-27 15:44:00,
2015-02-27 16:49:00,60.2,44.4,30.12,NW,304,28.8,28.8,56,0.00,CLR,,0.00,478.8,WeatherDisplay:10.37,2015-02-27 15:49:00,
2015-02-27 16:54:00,60.0,44.3,30.12,NW,324,31.1,31.1,56,0.00,CLR,,0.00,462.0,WeatherDisplay:10.37,2015-02-27 15:54:00,
2015-02-27 16:59:00,59.9,44.2,30.12,North,355,34.5,34.5,56,0.00,CLR,,0.00,445.2,WeatherDisplay:10.37,2015-02-27 15:59:00,
2015-02-27 17:04:00,60.0,45.2,30.12,NNW,338,23.0,23.0,58,0.00,CLR,,0.00,423.6,WeatherDisplay:10.37,2015-02-27 16:04:00,
2015-02-27 17:09:00,59.9,44.6,30.12,NNW,328,35.7,35.7,57,0.00,CLR,,0.00,409.2,WeatherDisplay:10.37,2015-02-27 16:09:00,
2015-02-27 17:14:00,59.9,44.6,30.12,NW,316,29.9,29.9,57,0.00,CLR,,0.00,394.8,WeatherDisplay:10.37,2015-02-27 16:14:00,
2015-02-27 17:19:00,59.9,44.6,30.12,NNW,327,30.0,30.0,57,0.00,CLR,,0.00,384.0,WeatherDisplay:10.37,2015-02-27 16:19:00,
2015-02-27 17:24:00,59.9,44.6,30.12,NNW,333,38.0,38.0,57,0.00,CLR,,0.00,348.0,WeatherDisplay:10.37,2015-02-27 16:24:00,
2015-02-27 17:29:00,59.9,44.6,30.12,NW,318,27.6,27.6,57,0.00,CLR,,0.00,312.0,WeatherDisplay:10.37,2015-02-27 16:29:00,
2015-02-27 17:34:00,60.0,44.7,30.12,WNW,302,35.7,35.7,57,0.00,CLR,,0.00,325.2,WeatherDisplay:10.37,2015-02-27 16:34:00,
2015-02-27 17:39:00,60.1,44.3,30.12,NNW,331,36.8,36.8,56,0.00,CLR,,0.00,300.0,WeatherDisplay:10.37,2015-02-27 16:39:00,
2015-02-27 17:44:00,60.1,44.8,30.12,NNW,330,31.1,31.1,57,0.00,CLR,,0.00,280.8,WeatherDisplay:10.37,2015-02-27 16:44:00,
2015-02-27 17:49:00,60.1,44.8,30.12,NW,309,32.2,32.2,57,0.00,CLR,,0.00,264.0,WeatherDisplay:10.37,2015-02-27 16:49:00,
2015-02-27 17:54:00,60.1,44.8,30.13,NW,326,31.1,31.1,57,0.00,CLR,,0.00,244.8,WeatherDisplay:10.37,2015-02-27 16:54:00,
2015-02-27 17:59:00,60.1,45.3,30.14,NW,319,27.6,27.6,58,0.00,CLR,,0.00,178.8,WeatherDisplay:10.37,2015-02-27 16:59:00,
2015-02-27 18:04:00,60.0,45.2,30.15,NW,311,27.6,27.6,58,0.00,CLR,,0.00,205.2,WeatherDisplay:10.37,2015-02-27 17:04:00,
2015-02-27 18:09:00,60.0,45.2,30.15,NNW,327,24.2,24.2,58,0.00,CLR,,0.00,187.2,WeatherDisplay:10.37,2015-02-27 17:09:00,
2015-02-27 18:14:00,59.9,44.6,30.15,NNW,331,26.0,26.0,57,0.00,CLR,,0.00,162.0,WeatherDisplay:10.37,2015-02-27 17:14:00,